sensor_id;sensor_type;location;lat;lon;timestamp;P1;durP1;ratioP1;P2;durP2;ratioP2
7527;SDS011;3805;49.006;8.514;2023-12-04T00:02:03;32.00;;;20.90;;
7527;SDS011;3805;49.006;8.514;2023-12-04T00:04:31;32.47;;;21.40;;
7527;SDS011;3805;49.006;8.514;2023-12-04T00:07:00;33.60;;;21.40;;
7527;SDS011;3805;49.006;8.514;2023-12-04T00:09:29;29.60;;;23.70;;
7527;SDS011;3805;49.006;8.514;2023-12-04T00:11:58;29.90;;;20.90;;
7527;SDS011;3805;49.006;8.514;2023-12-04T00:14:26;29.80;;;20.60;;
7527;SDS011;3805;49.006;8.514;2023-12-04T00:16:54;30.23;;;21.70;;
7527;SDS011;3805;49.006;8.514;2023-12-04T00:19:23;32.83;;;22.27;;
7527;SDS011;3805;49.006;8.514;2023-12-04T00:21:53;33.63;;;23.73;;
7527;SDS011;3805;49.006;8.514;2023-12-04T00:24:21;38.00;;;21.80;;
7527;SDS011;3805;49.006;8.514;2023-12-04T00:26:51;35.83;;;22.33;;
7527;SDS011;3805;49.006;8.514;2023-12-04T00:29:19;32.80;;;20.90;;
7527;SDS011;3805;49.006;8.514;2023-12-04T00:31:47;28.93;;;20.77;;
7527;SDS011;3805;49.006;8.514;2023-12-04T00:34:16;34.53;;;22.50;;
7527;SDS011;3805;49.006;8.514;2023-12-04T00:36:44;26.90;;;21.70;;
7527;SDS011;3805;49.006;8.514;2023-12-04T00:39:12;29.60;;;21.10;;
7527;SDS011;3805;49.006;8.514;2023-12-04T00:41:41;32.70;;;21.73;;
7527;SDS011;3805;49.006;8.514;2023-12-04T00:44:10;34.17;;;21.87;;
7527;SDS011;3805;49.006;8.514;2023-12-04T00:46:39;28.90;;;22.13;;
7527;SDS011;3805;49.006;8.514;2023-12-04T00:49:07;25.00;;;18.97;;
7527;SDS011;3805;49.006;8.514;2023-12-04T00:51:38;34.50;;;21.63;;
7527;SDS011;3805;49.006;8.514;2023-12-04T00:54:07;36.07;;;22.10;;
7527;SDS011;3805;49.006;8.514;2023-12-04T00:56:37;31.80;;;20.30;;
7527;SDS011;3805;49.006;8.514;2023-12-04T00:59:07;30.47;;;21.30;;
7527;SDS011;3805;49.006;8.514;2023-12-04T01:01:37;33.17;;;20.93;;
7527;SDS011;3805;49.006;8.514;2023-12-04T01:04:05;25.03;;;19.67;;
7527;SDS011;3805;49.006;8.514;2023-12-04T01:06:33;26.33;;;19.00;;
7527;SDS011;3805;49.006;8.514;2023-12-04T01:09:03;28.17;;;21.27;;
7527;SDS011;3805;49.006;8.514;2023-12-04T01:11:32;33.17;;;22.63;;
7527;SDS011;3805;49.006;8.514;2023-12-04T01:14:00;28.83;;;20.60;;
7527;SDS011;3805;49.006;8.514;2023-12-04T01:16:29;35.10;;;20.20;;
7527;SDS011;3805;49.006;8.514;2023-12-04T01:19:00;34.80;;;20.50;;
7527;SDS011;3805;49.006;8.514;2023-12-04T01:21:29;31.90;;;21.50;;
7527;SDS011;3805;49.006;8.514;2023-12-04T01:23:57;36.30;;;21.73;;
7527;SDS011;3805;49.006;8.514;2023-12-04T01:26:25;34.83;;;22.53;;
7527;SDS011;3805;49.006;8.514;2023-12-04T01:28:54;30.77;;;21.17;;
7527;SDS011;3805;49.006;8.514;2023-12-04T01:31:22;26.97;;;21.40;;
7527;SDS011;3805;49.006;8.514;2023-12-04T01:33:50;32.40;;;21.73;;
7527;SDS011;3805;49.006;8.514;2023-12-04T01:36:20;37.37;;;21.30;;
7527;SDS011;3805;49.006;8.514;2023-12-04T01:38:48;28.90;;;19.57;;
7527;SDS011;3805;49.006;8.514;2023-12-04T01:41:17;30.70;;;20.70;;
7527;SDS011;3805;49.006;8.514;2023-12-04T01:43:45;27.70;;;18.20;;
7527;SDS011;3805;49.006;8.514;2023-12-04T01:46:13;29.10;;;19.90;;
7527;SDS011;3805;49.006;8.514;2023-12-04T01:48:44;25.60;;;20.43;;
7527;SDS011;3805;49.006;8.514;2023-12-04T01:51:13;30.93;;;20.53;;
7527;SDS011;3805;49.006;8.514;2023-12-04T01:53:43;29.60;;;20.00;;
7527;SDS011;3805;49.006;8.514;2023-12-04T01:56:12;29.10;;;21.60;;
7527;SDS011;3805;49.006;8.514;2023-12-04T01:58:41;30.30;;;20.60;;
7527;SDS011;3805;49.006;8.514;2023-12-04T02:01:10;27.30;;;20.43;;
7527;SDS011;3805;49.006;8.514;2023-12-04T02:03:38;28.00;;;20.23;;
7527;SDS011;3805;49.006;8.514;2023-12-04T02:06:08;28.20;;;18.90;;
7527;SDS011;3805;49.006;8.514;2023-12-04T02:08:37;32.10;;;19.50;;
7527;SDS011;3805;49.006;8.514;2023-12-04T02:11:07;23.83;;;19.03;;
7527;SDS011;3805;49.006;8.514;2023-12-04T02:13:36;24.40;;;20.33;;
7527;SDS011;3805;49.006;8.514;2023-12-04T02:16:05;27.80;;;19.67;;
7527;SDS011;3805;49.006;8.514;2023-12-04T02:18:37;26.77;;;17.80;;
7527;SDS011;3805;49.006;8.514;2023-12-04T02:21:06;23.73;;;20.20;;
7527;SDS011;3805;49.006;8.514;2023-12-04T02:23:34;25.53;;;17.63;;
7527;SDS011;3805;49.006;8.514;2023-12-04T02:26:05;32.67;;;22.57;;
7527;SDS011;3805;49.006;8.514;2023-12-04T02:28:37;25.80;;;20.33;;
7527;SDS011;3805;49.006;8.514;2023-12-04T02:31:06;27.63;;;19.53;;
7527;SDS011;3805;49.006;8.514;2023-12-04T02:33:35;32.00;;;19.77;;
7527;SDS011;3805;49.006;8.514;2023-12-04T02:36:04;29.20;;;19.67;;
7527;SDS011;3805;49.006;8.514;2023-12-04T02:38:33;29.33;;;18.83;;
7527;SDS011;3805;49.006;8.514;2023-12-04T02:41:01;27.67;;;19.00;;
7527;SDS011;3805;49.006;8.514;2023-12-04T02:43:31;32.20;;;18.97;;
7527;SDS011;3805;49.006;8.514;2023-12-04T02:46:00;27.07;;;19.17;;
7527;SDS011;3805;49.006;8.514;2023-12-04T02:48:28;35.57;;;22.37;;
7527;SDS011;3805;49.006;8.514;2023-12-04T02:50:57;28.07;;;20.77;;
7527;SDS011;3805;49.006;8.514;2023-12-04T02:53:25;29.50;;;20.90;;
7527;SDS011;3805;49.006;8.514;2023-12-04T02:55:53;28.83;;;19.40;;
7527;SDS011;3805;49.006;8.514;2023-12-04T02:58:23;27.73;;;20.53;;
7527;SDS011;3805;49.006;8.514;2023-12-04T03:00:51;32.70;;;20.57;;
7527;SDS011;3805;49.006;8.514;2023-12-04T03:03:19;27.40;;;18.77;;
7527;SDS011;3805;49.006;8.514;2023-12-04T03:05:48;26.13;;;17.50;;
7527;SDS011;3805;49.006;8.514;2023-12-04T03:08:16;27.03;;;19.00;;
7527;SDS011;3805;49.006;8.514;2023-12-04T03:10:44;28.07;;;19.20;;
7527;SDS011;3805;49.006;8.514;2023-12-04T03:13:13;29.00;;;19.80;;
7527;SDS011;3805;49.006;8.514;2023-12-04T03:15:42;27.20;;;19.80;;
7527;SDS011;3805;49.006;8.514;2023-12-04T03:18:11;27.43;;;17.87;;
7527;SDS011;3805;49.006;8.514;2023-12-04T03:20:39;28.77;;;19.10;;
7527;SDS011;3805;49.006;8.514;2023-12-04T03:23:07;29.30;;;18.70;;
7527;SDS011;3805;49.006;8.514;2023-12-04T03:25:36;24.40;;;18.90;;
7527;SDS011;3805;49.006;8.514;2023-12-04T03:28:04;28.03;;;19.07;;
7527;SDS011;3805;49.006;8.514;2023-12-04T03:30:32;26.70;;;17.70;;
7527;SDS011;3805;49.006;8.514;2023-12-04T03:33:02;28.43;;;19.10;;
7527;SDS011;3805;49.006;8.514;2023-12-04T03:35:31;26.37;;;18.17;;
7527;SDS011;3805;49.006;8.514;2023-12-04T03:37:59;27.27;;;18.63;;
7527;SDS011;3805;49.006;8.514;2023-12-04T03:40:27;39.27;;;20.73;;
7527;SDS011;3805;49.006;8.514;2023-12-04T03:42:56;22.90;;;17.07;;
7527;SDS011;3805;49.006;8.514;2023-12-04T03:45:25;23.30;;;17.13;;
7527;SDS011;3805;49.006;8.514;2023-12-04T03:47:53;24.70;;;17.73;;
7527;SDS011;3805;49.006;8.514;2023-12-04T03:50:23;20.13;;;16.47;;
7527;SDS011;3805;49.006;8.514;2023-12-04T03:52:51;28.50;;;17.80;;
7527;SDS011;3805;49.006;8.514;2023-12-04T03:55:19;27.00;;;17.87;;
7527;SDS011;3805;49.006;8.514;2023-12-04T03:57:48;28.13;;;19.50;;
7527;SDS011;3805;49.006;8.514;2023-12-04T04:00:16;29.40;;;18.60;;
7527;SDS011;3805;49.006;8.514;2023-12-04T04:02:45;25.67;;;18.07;;
7527;SDS011;3805;49.006;8.514;2023-12-04T04:05:13;20.77;;;17.57;;
7527;SDS011;3805;49.006;8.514;2023-12-04T04:07:43;23.27;;;17.77;;
7527;SDS011;3805;49.006;8.514;2023-12-04T04:10:11;30.17;;;19.03;;
7527;SDS011;3805;49.006;8.514;2023-12-04T04:12:40;27.20;;;18.90;;
7527;SDS011;3805;49.006;8.514;2023-12-04T04:15:08;25.20;;;19.50;;
7527;SDS011;3805;49.006;8.514;2023-12-04T04:17:37;22.60;;;17.90;;
7527;SDS011;3805;49.006;8.514;2023-12-04T04:20:06;26.10;;;17.30;;
7527;SDS011;3805;49.006;8.514;2023-12-04T04:22:35;25.53;;;17.83;;
7527;SDS011;3805;49.006;8.514;2023-12-04T04:25:07;24.07;;;18.10;;
7527;SDS011;3805;49.006;8.514;2023-12-04T04:27:35;22.93;;;17.73;;
7527;SDS011;3805;49.006;8.514;2023-12-04T04:30:05;28.10;;;19.10;;
7527;SDS011;3805;49.006;8.514;2023-12-04T04:32:33;31.70;;;20.27;;
7527;SDS011;3805;49.006;8.514;2023-12-04T04:35:02;24.70;;;18.13;;
7527;SDS011;3805;49.006;8.514;2023-12-04T04:37:30;27.03;;;17.27;;
7527;SDS011;3805;49.006;8.514;2023-12-04T04:39:59;18.50;;;14.27;;
7527;SDS011;3805;49.006;8.514;2023-12-04T04:42:28;25.00;;;16.77;;
7527;SDS011;3805;49.006;8.514;2023-12-04T04:44:57;27.00;;;17.30;;
7527;SDS011;3805;49.006;8.514;2023-12-04T04:47:25;21.37;;;16.80;;
7527;SDS011;3805;49.006;8.514;2023-12-04T04:49:54;22.03;;;17.60;;
7527;SDS011;3805;49.006;8.514;2023-12-04T04:52:22;19.67;;;14.87;;
7527;SDS011;3805;49.006;8.514;2023-12-04T04:54:51;27.03;;;18.27;;
7527;SDS011;3805;49.006;8.514;2023-12-04T04:57:20;21.87;;;17.10;;
7527;SDS011;3805;49.006;8.514;2023-12-04T04:59:49;19.10;;;15.97;;
7527;SDS011;3805;49.006;8.514;2023-12-04T05:02:17;17.33;;;14.17;;
7527;SDS011;3805;49.006;8.514;2023-12-04T05:04:45;24.20;;;17.00;;
7527;SDS011;3805;49.006;8.514;2023-12-04T05:07:13;21.63;;;15.57;;
7527;SDS011;3805;49.006;8.514;2023-12-04T05:09:42;29.10;;;17.83;;
7527;SDS011;3805;49.006;8.514;2023-12-04T05:12:10;26.00;;;17.10;;
7527;SDS011;3805;49.006;8.514;2023-12-04T05:14:39;28.43;;;18.77;;
7527;SDS011;3805;49.006;8.514;2023-12-04T05:17:08;21.80;;;15.27;;
7527;SDS011;3805;49.006;8.514;2023-12-04T05:19:37;26.00;;;16.57;;
7527;SDS011;3805;49.006;8.514;2023-12-04T05:22:05;23.20;;;16.13;;
7527;SDS011;3805;49.006;8.514;2023-12-04T05:24:33;22.33;;;16.80;;
7527;SDS011;3805;49.006;8.514;2023-12-04T05:27:02;20.47;;;14.70;;
7527;SDS011;3805;49.006;8.514;2023-12-04T05:29:31;18.57;;;13.70;;
7527;SDS011;3805;49.006;8.514;2023-12-04T05:31:59;22.97;;;15.90;;
7527;SDS011;3805;49.006;8.514;2023-12-04T05:34:28;20.53;;;14.90;;
7527;SDS011;3805;49.006;8.514;2023-12-04T05:36:57;21.87;;;15.10;;
7527;SDS011;3805;49.006;8.514;2023-12-04T05:39:25;17.33;;;14.10;;
7527;SDS011;3805;49.006;8.514;2023-12-04T05:41:53;21.23;;;13.90;;
7527;SDS011;3805;49.006;8.514;2023-12-04T05:44:22;18.73;;;15.23;;
7527;SDS011;3805;49.006;8.514;2023-12-04T05:46:50;18.27;;;13.40;;
7527;SDS011;3805;49.006;8.514;2023-12-04T05:49:19;17.50;;;12.83;;
7527;SDS011;3805;49.006;8.514;2023-12-04T05:51:48;21.50;;;14.60;;
7527;SDS011;3805;49.006;8.514;2023-12-04T05:54:17;21.03;;;13.07;;
7527;SDS011;3805;49.006;8.514;2023-12-04T05:56:45;21.57;;;14.67;;
7527;SDS011;3805;49.006;8.514;2023-12-04T05:59:13;25.40;;;17.30;;
7527;SDS011;3805;49.006;8.514;2023-12-04T06:01:41;22.53;;;16.13;;
7527;SDS011;3805;49.006;8.514;2023-12-04T06:04:10;26.53;;;17.73;;
7527;SDS011;3805;49.006;8.514;2023-12-04T06:06:38;19.27;;;15.80;;
7527;SDS011;3805;49.006;8.514;2023-12-04T06:09:08;20.43;;;15.00;;
7527;SDS011;3805;49.006;8.514;2023-12-04T06:11:36;21.90;;;15.53;;
7527;SDS011;3805;49.006;8.514;2023-12-04T06:14:04;24.37;;;16.20;;
7527;SDS011;3805;49.006;8.514;2023-12-04T06:16:33;20.40;;;16.20;;
7527;SDS011;3805;49.006;8.514;2023-12-04T06:19:01;19.10;;;16.00;;
7527;SDS011;3805;49.006;8.514;2023-12-04T06:21:31;17.87;;;15.20;;
7527;SDS011;3805;49.006;8.514;2023-12-04T06:24:00;24.60;;;19.00;;
7527;SDS011;3805;49.006;8.514;2023-12-04T06:26:34;25.83;;;17.70;;
7527;SDS011;3805;49.006;8.514;2023-12-04T06:29:03;21.07;;;15.83;;
7527;SDS011;3805;49.006;8.514;2023-12-04T06:31:32;19.13;;;16.60;;
7527;SDS011;3805;49.006;8.514;2023-12-04T06:34:00;23.83;;;16.10;;
7527;SDS011;3805;49.006;8.514;2023-12-04T06:36:29;21.70;;;16.30;;
7527;SDS011;3805;49.006;8.514;2023-12-04T06:38:59;24.87;;;16.20;;
7527;SDS011;3805;49.006;8.514;2023-12-04T06:41:31;21.43;;;15.37;;
7527;SDS011;3805;49.006;8.514;2023-12-04T06:44:01;22.97;;;14.30;;
7527;SDS011;3805;49.006;8.514;2023-12-04T06:46:30;20.10;;;15.30;;
7527;SDS011;3805;49.006;8.514;2023-12-04T06:48:59;20.57;;;16.40;;
7527;SDS011;3805;49.006;8.514;2023-12-04T06:51:28;19.57;;;15.50;;
7527;SDS011;3805;49.006;8.514;2023-12-04T06:53:56;18.10;;;14.43;;
7527;SDS011;3805;49.006;8.514;2023-12-04T06:56:24;20.23;;;15.80;;
7527;SDS011;3805;49.006;8.514;2023-12-04T06:58:53;25.57;;;15.33;;
7527;SDS011;3805;49.006;8.514;2023-12-04T07:01:22;22.23;;;16.30;;
7527;SDS011;3805;49.006;8.514;2023-12-04T07:03:51;23.40;;;17.00;;
7527;SDS011;3805;49.006;8.514;2023-12-04T07:06:19;25.57;;;14.97;;
7527;SDS011;3805;49.006;8.514;2023-12-04T07:08:47;23.50;;;17.30;;
7527;SDS011;3805;49.006;8.514;2023-12-04T07:11:16;21.50;;;17.47;;
7527;SDS011;3805;49.006;8.514;2023-12-04T07:13:44;18.80;;;14.83;;
7527;SDS011;3805;49.006;8.514;2023-12-04T07:16:12;15.97;;;13.70;;
7527;SDS011;3805;49.006;8.514;2023-12-04T07:18:42;22.77;;;14.87;;
7527;SDS011;3805;49.006;8.514;2023-12-04T07:21:10;20.70;;;15.47;;
7527;SDS011;3805;49.006;8.514;2023-12-04T07:23:39;24.07;;;13.93;;
7527;SDS011;3805;49.006;8.514;2023-12-04T07:26:07;20.50;;;15.77;;
7527;SDS011;3805;49.006;8.514;2023-12-04T07:28:35;20.53;;;15.63;;
7527;SDS011;3805;49.006;8.514;2023-12-04T07:31:04;17.07;;;15.27;;
7527;SDS011;3805;49.006;8.514;2023-12-04T07:33:32;24.87;;;16.00;;
7527;SDS011;3805;49.006;8.514;2023-12-04T07:36:03;20.67;;;14.17;;
7527;SDS011;3805;49.006;8.514;2023-12-04T07:38:31;19.23;;;13.57;;
7527;SDS011;3805;49.006;8.514;2023-12-04T07:41:00;22.03;;;16.53;;
7527;SDS011;3805;49.006;8.514;2023-12-04T07:43:28;19.47;;;14.80;;
7527;SDS011;3805;49.006;8.514;2023-12-04T07:45:56;17.23;;;12.90;;
7527;SDS011;3805;49.006;8.514;2023-12-04T07:48:25;19.00;;;13.57;;
7527;SDS011;3805;49.006;8.514;2023-12-04T07:50:54;22.10;;;15.03;;
7527;SDS011;3805;49.006;8.514;2023-12-04T07:53:23;18.70;;;14.00;;
7527;SDS011;3805;49.006;8.514;2023-12-04T07:55:51;15.90;;;14.10;;
7527;SDS011;3805;49.006;8.514;2023-12-04T07:58:20;16.53;;;13.17;;
7527;SDS011;3805;49.006;8.514;2023-12-04T08:00:49;19.80;;;13.40;;
7527;SDS011;3805;49.006;8.514;2023-12-04T08:03:17;17.37;;;13.23;;
7527;SDS011;3805;49.006;8.514;2023-12-04T08:05:45;18.50;;;13.13;;
7527;SDS011;3805;49.006;8.514;2023-12-04T08:08:14;14.77;;;12.63;;
7527;SDS011;3805;49.006;8.514;2023-12-04T08:10:43;19.30;;;15.30;;
7527;SDS011;3805;49.006;8.514;2023-12-04T08:13:12;17.17;;;14.30;;
7527;SDS011;3805;49.006;8.514;2023-12-04T08:15:40;16.93;;;13.60;;
7527;SDS011;3805;49.006;8.514;2023-12-04T08:18:09;18.67;;;14.03;;
7527;SDS011;3805;49.006;8.514;2023-12-04T08:20:37;16.10;;;14.20;;
7527;SDS011;3805;49.006;8.514;2023-12-04T08:23:07;17.00;;;14.00;;
7527;SDS011;3805;49.006;8.514;2023-12-04T08:25:36;14.90;;;12.63;;
7527;SDS011;3805;49.006;8.514;2023-12-04T08:28:07;22.63;;;15.60;;
7527;SDS011;3805;49.006;8.514;2023-12-04T08:30:36;17.83;;;15.00;;
7527;SDS011;3805;49.006;8.514;2023-12-04T08:33:04;17.03;;;13.83;;
7527;SDS011;3805;49.006;8.514;2023-12-04T08:35:33;18.77;;;14.13;;
7527;SDS011;3805;49.006;8.514;2023-12-04T08:38:02;17.40;;;14.23;;
7527;SDS011;3805;49.006;8.514;2023-12-04T08:40:30;19.00;;;13.53;;
7527;SDS011;3805;49.006;8.514;2023-12-04T08:42:59;21.03;;;15.73;;
7527;SDS011;3805;49.006;8.514;2023-12-04T08:45:28;18.80;;;15.17;;
7527;SDS011;3805;49.006;8.514;2023-12-04T08:47:57;17.23;;;14.10;;
7527;SDS011;3805;49.006;8.514;2023-12-04T08:50:26;21.90;;;14.93;;
7527;SDS011;3805;49.006;8.514;2023-12-04T08:52:54;20.20;;;14.60;;
7527;SDS011;3805;49.006;8.514;2023-12-04T08:55:22;15.60;;;13.67;;
7527;SDS011;3805;49.006;8.514;2023-12-04T08:57:51;17.63;;;14.03;;
7527;SDS011;3805;49.006;8.514;2023-12-04T09:00:20;16.53;;;14.77;;
7527;SDS011;3805;49.006;8.514;2023-12-04T09:02:50;21.23;;;13.97;;
7527;SDS011;3805;49.006;8.514;2023-12-04T09:05:32;15.37;;;13.70;;
7527;SDS011;3805;49.006;8.514;2023-12-04T09:08:00;21.63;;;16.20;;
7527;SDS011;3805;49.006;8.514;2023-12-04T09:10:32;21.90;;;15.30;;
7527;SDS011;3805;49.006;8.514;2023-12-04T09:13:20;21.40;;;15.30;;
7527;SDS011;3805;49.006;8.514;2023-12-04T09:15:48;21.23;;;15.27;;
7527;SDS011;3805;49.006;8.514;2023-12-04T09:18:18;20.37;;;13.80;;
7527;SDS011;3805;49.006;8.514;2023-12-04T09:20:47;21.13;;;12.93;;
7527;SDS011;3805;49.006;8.514;2023-12-04T09:23:15;17.83;;;13.60;;
7527;SDS011;3805;49.006;8.514;2023-12-04T09:25:43;17.57;;;15.70;;
7527;SDS011;3805;49.006;8.514;2023-12-04T09:28:11;17.80;;;15.33;;
7527;SDS011;3805;49.006;8.514;2023-12-04T09:30:40;17.67;;;14.27;;
7527;SDS011;3805;49.006;8.514;2023-12-04T09:33:08;16.77;;;12.83;;
7527;SDS011;3805;49.006;8.514;2023-12-04T09:35:38;20.73;;;16.47;;
7527;SDS011;3805;49.006;8.514;2023-12-04T09:38:06;19.17;;;15.17;;
7527;SDS011;3805;49.006;8.514;2023-12-04T09:40:34;25.43;;;14.37;;
7527;SDS011;3805;49.006;8.514;2023-12-04T09:43:03;20.30;;;14.40;;
7527;SDS011;3805;49.006;8.514;2023-12-04T09:45:31;19.43;;;13.90;;
7527;SDS011;3805;49.006;8.514;2023-12-04T09:48:00;16.90;;;13.37;;
7527;SDS011;3805;49.006;8.514;2023-12-04T09:50:29;16.87;;;14.27;;
7527;SDS011;3805;49.006;8.514;2023-12-04T09:52:59;20.57;;;13.53;;
7527;SDS011;3805;49.006;8.514;2023-12-04T09:55:28;18.47;;;13.13;;
7527;SDS011;3805;49.006;8.514;2023-12-04T09:57:58;18.77;;;13.90;;
7527;SDS011;3805;49.006;8.514;2023-12-04T10:00:26;20.43;;;13.30;;
7527;SDS011;3805;49.006;8.514;2023-12-04T10:02:55;17.50;;;13.63;;
7527;SDS011;3805;49.006;8.514;2023-12-04T10:05:23;15.20;;;13.57;;
7527;SDS011;3805;49.006;8.514;2023-12-04T10:07:52;16.43;;;13.97;;
7527;SDS011;3805;49.006;8.514;2023-12-04T10:10:21;17.87;;;14.37;;
7527;SDS011;3805;49.006;8.514;2023-12-04T10:12:50;16.90;;;14.27;;
7527;SDS011;3805;49.006;8.514;2023-12-04T10:15:18;17.03;;;13.10;;
7527;SDS011;3805;49.006;8.514;2023-12-04T10:17:47;16.97;;;13.37;;
7527;SDS011;3805;49.006;8.514;2023-12-04T10:20:15;17.30;;;12.33;;
7527;SDS011;3805;49.006;8.514;2023-12-04T10:22:52;14.27;;;11.47;;
7527;SDS011;3805;49.006;8.514;2023-12-04T10:25:23;16.00;;;12.90;;
7527;SDS011;3805;49.006;8.514;2023-12-04T10:27:52;16.87;;;13.20;;
7527;SDS011;3805;49.006;8.514;2023-12-04T10:30:25;25.53;;;14.33;;
7527;SDS011;3805;49.006;8.514;2023-12-04T10:32:54;16.60;;;13.17;;
7527;SDS011;3805;49.006;8.514;2023-12-04T10:35:28;18.57;;;13.50;;
7527;SDS011;3805;49.006;8.514;2023-12-04T10:37:57;19.27;;;13.70;;
7527;SDS011;3805;49.006;8.514;2023-12-04T10:40:28;17.37;;;13.77;;
7527;SDS011;3805;49.006;8.514;2023-12-04T10:43:11;20.33;;;13.33;;
7527;SDS011;3805;49.006;8.514;2023-12-04T10:45:40;17.60;;;13.60;;
7527;SDS011;3805;49.006;8.514;2023-12-04T10:48:10;23.00;;;14.70;;
7527;SDS011;3805;49.006;8.514;2023-12-04T10:50:40;15.23;;;10.60;;
7527;SDS011;3805;49.006;8.514;2023-12-04T10:53:12;16.17;;;12.60;;
7527;SDS011;3805;49.006;8.514;2023-12-04T10:55:42;19.70;;;14.80;;
7527;SDS011;3805;49.006;8.514;2023-12-04T10:58:12;22.90;;;16.40;;
7527;SDS011;3805;49.006;8.514;2023-12-04T11:00:42;22.70;;;17.40;;
7527;SDS011;3805;49.006;8.514;2023-12-04T11:03:13;18.50;;;14.30;;
7527;SDS011;3805;49.006;8.514;2023-12-04T11:05:42;21.30;;;15.90;;
7527;SDS011;3805;49.006;8.514;2023-12-04T11:08:13;19.97;;;16.23;;
7527;SDS011;3805;49.006;8.514;2023-12-04T11:10:48;21.00;;;16.80;;
7527;SDS011;3805;49.006;8.514;2023-12-04T11:13:21;22.60;;;16.97;;
7527;SDS011;3805;49.006;8.514;2023-12-04T11:15:50;21.70;;;16.73;;
7527;SDS011;3805;49.006;8.514;2023-12-04T11:18:20;21.57;;;17.30;;
7527;SDS011;3805;49.006;8.514;2023-12-04T11:20:51;23.37;;;18.30;;
7527;SDS011;3805;49.006;8.514;2023-12-04T11:23:23;25.50;;;18.80;;
7527;SDS011;3805;49.006;8.514;2023-12-04T11:25:53;24.00;;;19.63;;
7527;SDS011;3805;49.006;8.514;2023-12-04T11:28:22;24.80;;;17.60;;
7527;SDS011;3805;49.006;8.514;2023-12-04T11:30:52;19.10;;;13.57;;
7527;SDS011;3805;49.006;8.514;2023-12-04T11:33:21;25.43;;;15.20;;
7527;SDS011;3805;49.006;8.514;2023-12-04T11:35:49;19.07;;;14.60;;
7527;SDS011;3805;49.006;8.514;2023-12-04T11:38:18;25.23;;;14.90;;
7527;SDS011;3805;49.006;8.514;2023-12-04T11:40:46;18.10;;;15.03;;
7527;SDS011;3805;49.006;8.514;2023-12-04T11:43:23;20.57;;;14.57;;
7527;SDS011;3805;49.006;8.514;2023-12-04T11:46:07;20.93;;;13.73;;
7527;SDS011;3805;49.006;8.514;2023-12-04T11:48:36;24.67;;;15.37;;
7527;SDS011;3805;49.006;8.514;2023-12-04T11:51:05;15.60;;;13.30;;
7527;SDS011;3805;49.006;8.514;2023-12-04T11:53:37;17.00;;;14.40;;
7527;SDS011;3805;49.006;8.514;2023-12-04T11:56:09;20.63;;;14.50;;
7527;SDS011;3805;49.006;8.514;2023-12-04T11:58:43;24.03;;;17.73;;
7527;SDS011;3805;49.006;8.514;2023-12-04T12:01:12;19.50;;;15.63;;
7527;SDS011;3805;49.006;8.514;2023-12-04T12:03:40;22.20;;;15.40;;
7527;SDS011;3805;49.006;8.514;2023-12-04T12:06:09;23.50;;;16.30;;
7527;SDS011;3805;49.006;8.514;2023-12-04T12:08:38;22.67;;;16.73;;
7527;SDS011;3805;49.006;8.514;2023-12-04T12:11:06;25.07;;;16.93;;
7527;SDS011;3805;49.006;8.514;2023-12-04T12:13:35;15.47;;;13.77;;
7527;SDS011;3805;49.006;8.514;2023-12-04T12:16:05;15.03;;;13.43;;
7527;SDS011;3805;49.006;8.514;2023-12-04T12:18:34;19.13;;;14.40;;
7527;SDS011;3805;49.006;8.514;2023-12-04T12:21:03;21.13;;;14.40;;
7527;SDS011;3805;49.006;8.514;2023-12-04T12:23:32;17.90;;;13.20;;
7527;SDS011;3805;49.006;8.514;2023-12-04T12:26:00;20.73;;;14.83;;
7527;SDS011;3805;49.006;8.514;2023-12-04T12:28:29;19.57;;;13.53;;
7527;SDS011;3805;49.006;8.514;2023-12-04T12:31:01;16.37;;;14.23;;
7527;SDS011;3805;49.006;8.514;2023-12-04T12:33:31;17.07;;;13.60;;
7527;SDS011;3805;49.006;8.514;2023-12-04T12:35:59;17.30;;;13.87;;
7527;SDS011;3805;49.006;8.514;2023-12-04T12:38:31;18.20;;;13.03;;
7527;SDS011;3805;49.006;8.514;2023-12-04T12:41:05;17.00;;;13.40;;
7527;SDS011;3805;49.006;8.514;2023-12-04T12:43:35;17.93;;;13.70;;
7527;SDS011;3805;49.006;8.514;2023-12-04T12:46:04;19.00;;;13.40;;
7527;SDS011;3805;49.006;8.514;2023-12-04T12:48:34;20.97;;;13.60;;
7527;SDS011;3805;49.006;8.514;2023-12-04T12:51:03;19.23;;;14.23;;
7527;SDS011;3805;49.006;8.514;2023-12-04T12:53:32;17.57;;;12.53;;
7527;SDS011;3805;49.006;8.514;2023-12-04T12:56:01;18.00;;;14.47;;
7527;SDS011;3805;49.006;8.514;2023-12-04T12:58:30;17.07;;;12.93;;
7527;SDS011;3805;49.006;8.514;2023-12-04T13:00:59;17.63;;;14.27;;
7527;SDS011;3805;49.006;8.514;2023-12-04T13:03:30;17.33;;;14.17;;
7527;SDS011;3805;49.006;8.514;2023-12-04T13:06:00;15.30;;;12.87;;
7527;SDS011;3805;49.006;8.514;2023-12-04T13:08:32;15.70;;;12.80;;
7527;SDS011;3805;49.006;8.514;2023-12-04T13:11:00;20.73;;;12.70;;
7527;SDS011;3805;49.006;8.514;2023-12-04T13:13:28;17.30;;;12.47;;
7527;SDS011;3805;49.006;8.514;2023-12-04T13:15:58;16.70;;;13.30;;
7527;SDS011;3805;49.006;8.514;2023-12-04T13:18:27;21.03;;;14.37;;
7527;SDS011;3805;49.006;8.514;2023-12-04T13:20:58;15.60;;;12.77;;
7527;SDS011;3805;49.006;8.514;2023-12-04T13:23:28;17.20;;;12.57;;
7527;SDS011;3805;49.006;8.514;2023-12-04T13:25:56;14.03;;;11.90;;
7527;SDS011;3805;49.006;8.514;2023-12-04T13:28:24;17.30;;;12.80;;
7527;SDS011;3805;49.006;8.514;2023-12-04T13:31:02;17.20;;;12.17;;
7527;SDS011;3805;49.006;8.514;2023-12-04T13:33:31;15.90;;;12.77;;
7527;SDS011;3805;49.006;8.514;2023-12-04T13:35:59;16.47;;;12.67;;
7527;SDS011;3805;49.006;8.514;2023-12-04T13:38:29;17.37;;;12.07;;
7527;SDS011;3805;49.006;8.514;2023-12-04T13:41:03;17.50;;;11.93;;
7527;SDS011;3805;49.006;8.514;2023-12-04T13:43:56;17.37;;;12.60;;
7527;SDS011;3805;49.006;8.514;2023-12-04T13:46:26;13.57;;;11.60;;
7527;SDS011;3805;49.006;8.514;2023-12-04T13:48:59;15.33;;;11.90;;
7527;SDS011;3805;49.006;8.514;2023-12-04T13:51:28;18.40;;;13.23;;
7527;SDS011;3805;49.006;8.514;2023-12-04T13:53:59;16.63;;;13.37;;
7527;SDS011;3805;49.006;8.514;2023-12-04T13:56:36;15.47;;;12.00;;
7527;SDS011;3805;49.006;8.514;2023-12-04T13:59:17;17.40;;;12.03;;
7527;SDS011;3805;49.006;8.514;2023-12-04T14:01:47;17.23;;;11.20;;
7527;SDS011;3805;49.006;8.514;2023-12-04T14:04:18;13.90;;;10.67;;
7527;SDS011;3805;49.006;8.514;2023-12-04T14:06:46;15.73;;;11.00;;
7527;SDS011;3805;49.006;8.514;2023-12-04T14:09:17;13.00;;;11.10;;
7527;SDS011;3805;49.006;8.514;2023-12-04T14:11:45;12.47;;;10.47;;
7527;SDS011;3805;49.006;8.514;2023-12-04T14:14:14;13.43;;;10.80;;
7527;SDS011;3805;49.006;8.514;2023-12-04T14:16:43;13.63;;;11.40;;
7527;SDS011;3805;49.006;8.514;2023-12-04T14:19:13;13.50;;;10.97;;
7527;SDS011;3805;49.006;8.514;2023-12-04T14:21:44;14.03;;;12.53;;
7527;SDS011;3805;49.006;8.514;2023-12-04T14:24:12;13.87;;;11.73;;
7527;SDS011;3805;49.006;8.514;2023-12-04T14:26:41;13.27;;;11.80;;
7527;SDS011;3805;49.006;8.514;2023-12-04T14:29:10;16.73;;;11.90;;
7527;SDS011;3805;49.006;8.514;2023-12-04T14:31:40;11.80;;;9.80;;
7527;SDS011;3805;49.006;8.514;2023-12-04T14:34:08;12.80;;;11.50;;
7527;SDS011;3805;49.006;8.514;2023-12-04T14:36:37;14.67;;;10.27;;
7527;SDS011;3805;49.006;8.514;2023-12-04T14:39:05;12.67;;;10.33;;
7527;SDS011;3805;49.006;8.514;2023-12-04T14:41:37;17.83;;;13.00;;
7527;SDS011;3805;49.006;8.514;2023-12-04T14:44:07;19.57;;;17.33;;
7527;SDS011;3805;49.006;8.514;2023-12-04T14:46:36;24.93;;;19.40;;
7527;SDS011;3805;49.006;8.514;2023-12-04T14:49:05;21.70;;;18.23;;
7527;SDS011;3805;49.006;8.514;2023-12-04T14:51:33;26.33;;;20.93;;
7527;SDS011;3805;49.006;8.514;2023-12-04T14:54:02;30.10;;;22.33;;
7527;SDS011;3805;49.006;8.514;2023-12-04T14:56:43;29.20;;;20.73;;
7527;SDS011;3805;49.006;8.514;2023-12-04T14:59:30;30.53;;;22.17;;
7527;SDS011;3805;49.006;8.514;2023-12-04T15:02:15;29.40;;;21.70;;